X  Schlie├čen METAR Luftfahrt Wetterdaten     LGRX Patras Araxos Agamemnon Airport
Temperatur
7°C Temperatur
5°C Taupunkt
87% Feuchtigkeit



Wind
2 M/S
5 MPS
8 KM/S
4 KTS



350°
N
Aktuelle Wetterlage

Meistens vereinzelte Wolken Meistens vereinzelte Wolken
Luftdruck 1010.92 (hPa) - 29.85 (inHg)
Sichtweite 6.2 (Meile) - 10 (Km)
Flughafen
Flughafen Code LGRX

Position : Patras Araxos Agamemnon Airport
Entfernung: 108 (Km)

Metar:
LGRX 050150Z 35004KT 9999 SCT020 07/05 Q1011 RMK FEW080 BLU

Zeit: 05-02-2023 03:50 EET